Time;durP1;ratioP1;P1;durP2;ratioP2;P2;SDS_P1;SDS_P2;PMS_P1;PMS_P2;Temp;Humidity;BMP_temperature;BMP_pressure;BME280_temperature;BME280_humidity;BME280_pressure;Samples;Min_cycle;Max_cycle;Signal;HPM_P1;HPM_P2
2022/04/15 00:00:28;;;;;;;12.35;4.60;;;22.50;58.70;;;;;;4952601;29;20038;-72
2022/04/15 00:02:54;;;;;;;8.00;4.43;;;22.50;58.60;;;;;;4951965;29;20090;-72
2022/04/15 00:05:40;;;;;;;12.20;4.47;;;22.50;58.60;;;;;;4951485;28;20046;-73
2022/04/15 00:08:10;;;;;;;11.77;4.68;;;22.50;58.60;;;;;;4952924;28;20045;-73
2022/04/15 00:10:39;;;;;;;14.00;4.63;;;22.50;58.60;;;;;;4933417;29;20508;-72
2022/04/15 00:13:06;;;;;;;11.10;3.97;;;22.50;58.70;;;;;;4951370;28;20043;-73
2022/04/15 00:15:33;;;;;;;11.35;4.53;;;22.50;58.70;;;;;;4951743;29;20317;-72
2022/04/15 00:17:58;;;;;;;16.67;4.45;;;22.60;59.30;;;;;;4951546;29;20035;-74
2022/04/15 00:20:26;;;;;;;10.73;4.40;;;22.60;58.60;;;;;;4952443;28;20091;-74
2022/04/15 00:22:53;;;;;;;9.20;4.53;;;22.50;58.60;;;;;;4947782;29;20047;-74
2022/04/15 00:25:19;;;;;;;10.27;4.18;;;22.50;58.50;;;;;;4953051;28;20393;-75
2022/04/15 00:27:45;;;;;;;9.88;4.15;;;22.50;58.20;;;;;;4948369;28;20051;-73
2022/04/15 00:30:12;;;;;;;12.02;5.40;;;22.50;58.20;;;;;;4950402;28;20357;-72
2022/04/15 00:32:38;;;;;;;10.85;4.80;;;22.50;58.10;;;;;;4952343;29;20392;-73
2022/04/15 00:35:05;;;;;;;10.07;4.72;;;22.50;58.20;;;;;;4948404;28;20551;-72
2022/04/15 00:37:31;;;;;;;12.48;4.53;;;22.50;58.20;;;;;;4951081;29;20035;-74
2022/04/15 00:39:58;;;;;;;11.95;4.70;;;22.60;58.20;;;;;;4951106;28;20024;-72
2022/04/15 00:42:24;;;;;;;10.35;4.50;;;22.50;58.20;;;;;;4932064;29;20139;-73
2022/04/15 00:44:57;;;;;;;10.60;4.30;;;22.50;58.20;;;;;;4948349;28;20528;-72
2022/04/15 00:47:48;;;;;;;10.90;4.40;;;22.50;58.20;;;;;;4949411;29;20028;-72
2022/04/15 00:50:14;;;;;;;10.10;4.25;;;22.50;58.30;;;;;;4949112;29;20511;-72
2022/04/15 00:52:44;;;;;;;13.95;4.80;;;22.50;58.20;;;;;;4946518;29;20031;-74
2022/04/15 00:55:11;;;;;;;10.13;3.75;;;22.50;58.90;;;;;;4949071;29;20473;-72
2022/04/15 00:57:43;;;;;;;21.85;4.80;;;22.50;58.10;;;;;;4934554;29;20476;-74
2022/04/15 01:00:12;;;;;;;10.02;4.20;;;22.50;58.10;;;;;;4952299;28;20034;-72
2022/04/15 01:02:39;;;;;;;7.80;4.28;;;22.50;58.40;;;;;;4942243;29;20365;-72
2022/04/15 01:05:09;;;;;;;10.48;4.25;;;22.60;58.30;;;;;;4946265;28;20460;-72
2022/04/15 01:07:35;;;;;;;;;;;22.50;58.20;;;;;;4949477;29;20081;-72
2022/04/15 01:10:07;;;;;;;15.73;4.90;;;22.50;58.20;;;;;;4949135;29;19952;-72
2022/04/15 01:12:38;;;;;;;11.48;4.20;;;22.50;58.20;;;;;;4950776;29;20579;-72
2022/04/15 01:15:07;;;;;;;10.52;4.03;;;22.60;58.20;;;;;;4946755;29;20060;-72
2022/04/15 01:17:33;;;;;;;14.40;3.92;;;22.60;58.20;;;;;;4948195;28;20078;-72
2022/04/15 01:20:00;;;;;;;11.25;4.00;;;22.60;58.20;;;;;;4946108;29;20122;-72
2022/04/15 01:22:32;;;;;;;7.10;4.20;;;22.50;58.10;;;;;;4950365;29;20038;-72
2022/04/15 01:24:57;;;;;;;8.93;3.90;;;22.50;58.10;;;;;;4950646;29;20484;-73
2022/04/15 01:27:34;;;;;;;12.07;4.18;;;22.60;58.10;;;;;;4950477;29;20024;-72
2022/04/15 01:29:59;;;;;;;7.82;3.90;;;22.60;58.10;;;;;;4948694;28;20369;-72
2022/04/15 01:32:25;;;;;;;18.30;4.55;;;22.60;58.00;;;;;;4950523;28;20042;-72
2022/04/15 01:34:51;;;;;;;8.00;3.70;;;22.60;58.00;;;;;;4947789;28;20492;-72
2022/04/15 01:37:20;;;;;;;8.45;3.92;;;22.60;57.90;;;;;;4949782;29;20474;-72
2022/04/15 01:39:46;;;;;;;9.60;4.03;;;22.50;57.80;;;;;;4949730;28;20453;-72
2022/04/15 01:42:16;;;;;;;10.00;4.05;;;22.60;57.80;;;;;;4949804;28;20484;-72
2022/04/15 01:44:44;;;;;;;13.02;3.92;;;22.60;57.90;;;;;;4949654;29;20034;-72
2022/04/15 01:47:12;;;;;;;7.72;3.80;;;22.60;57.80;;;;;;4949511;28;20384;-73
2022/04/15 01:49:38;;;;;;;11.35;3.65;;;22.60;57.80;;;;;;4914014;29;20046;-73
2022/04/15 01:52:07;;;;;;;9.98;3.55;;;22.60;57.70;;;;;;4930827;29;20026;-73
2022/04/15 01:54:32;;;;;;;9.87;3.60;;;22.60;57.80;;;;;;4950869;28;20563;-73
2022/04/15 01:56:58;;;;;;;6.18;3.85;;;22.60;57.70;;;;;;4948526;28;20114;-73
2022/04/15 01:59:24;;;;;;;7.10;3.63;;;22.60;57.80;;;;;;4950657;29;20065;-75
2022/04/15 02:01:54;;;;;;;5.07;3.13;;;22.60;57.70;;;;;;4946497;28;20059;-75
2022/04/15 02:04:26;;;;;;;8.10;3.35;;;22.60;57.70;;;;;;4949829;28;20525;-75
2022/04/15 02:06:53;;;;;;;9.75;3.17;;;22.60;57.70;;;;;;4949146;28;20156;-74
2022/04/15 02:09:22;;;;;;;8.50;3.65;;;22.60;57.70;;;;;;4929443;29;20043;-74
2022/04/15 02:11:51;;;;;;;12.07;3.53;;;22.60;57.70;;;;;;4944672;29;20027;-72
2022/04/15 02:14:18;;;;;;;10.30;3.90;;;22.60;57.70;;;;;;4950488;29;20039;-73
2022/04/15 02:16:50;;;;;;;7.72;3.30;;;22.60;58.30;;;;;;4916811;29;20027;-73
2022/04/15 02:19:16;;;;;;;8.97;3.50;;;22.60;57.70;;;;;;4932526;29;20077;-73
2022/04/15 02:21:42;;;;;;;9.25;3.45;;;22.60;57.60;;;;;;4948714;28;20286;-74
2022/04/15 02:24:08;;;;;;;5.70;3.00;;;22.60;57.40;;;;;;4950521;28;20035;-74
2022/04/15 02:26:33;;;;;;;9.68;3.45;;;22.60;57.60;;;;;;4929478;29;20094;-72
2022/04/15 02:29:00;;;;;;;7.47;3.72;;;22.60;57.10;;;;;;4951082;29;20441;-75
2022/04/15 02:31:27;;;;;;;10.80;4.03;;;22.50;56.80;;;;;;4941802;29;20037;-74
2022/04/15 02:37:10;;;;;;;;;;;;;;;;;;;;;
2022/04/15 02:41:16;;;;;;;14.55;4.10;;;22.50;56.80;;;;;;4935256;29;20088;-73
2022/04/15 02:47:41;;;;;;;8.95;3.53;;;22.50;56.90;;;;;;4930555;29;20110;-73
2022/04/15 02:50:08;;;;;;;9.70;3.50;;;22.50;56.80;;;;;;4914213;29;20126;-72
2022/04/15 02:52:35;;;;;;;9.95;3.88;;;22.50;56.90;;;;;;4941442;29;20039;-73
2022/04/15 02:55:00;;;;;;;10.05;3.50;;;22.50;56.90;;;;;;4955038;29;20515;-74
2022/04/15 03:10:13;;;;;;;6.75;3.17;;;22.50;56.80;;;;;;4921907;29;20598;-74
2022/04/15 03:12:39;;;;;;;5.55;3.10;;;22.50;56.90;;;;;;4946806;29;20039;-74
2022/04/15 03:15:06;;;;;;;10.43;3.40;;;22.50;56.80;;;;;;4950102;28;20027;-74
2022/04/15 03:17:33;;;;;;;7.07;2.97;;;22.50;56.80;;;;;;4955390;28;20019;-74
2022/04/15 03:20:02;;;;;;;9.98;3.40;;;22.60;56.90;;;;;;4949523;28;20027;-74
2022/04/15 03:22:29;;;;;;;10.25;3.22;;;22.50;56.90;;;;;;4949603;29;20023;-74
2022/04/15 03:24:55;;;;;;;7.18;3.33;;;22.50;56.80;;;;;;4953036;29;20712;-72
2022/04/15 03:27:20;;;;;;;10.38;3.40;;;22.50;56.90;;;;;;4954168;29;20028;-73
2022/04/15 03:29:46;;;;;;;10.02;3.70;;;22.50;56.90;;;;;;4950261;28;20026;-73
2022/04/15 03:32:12;;;;;;;6.95;2.97;;;22.50;56.90;;;;;;4935161;29;20032;-73
2022/04/15 03:34:37;;;;;;;7.43;3.03;;;22.50;56.80;;;;;;4936743;29;20066;-73
2022/04/15 03:37:04;;;;;;;6.30;2.88;;;22.50;56.80;;;;;;4951848;29;20030;-73
2022/04/15 03:39:30;;;;;;;6.93;3.05;;;22.50;56.80;;;;;;4935641;29;20043;-73
2022/04/15 03:41:55;;;;;;;6.22;3.30;;;22.60;56.90;;;;;;4937522;29;20492;-73
2022/04/15 03:44:22;;;;;;;4.93;2.90;;;22.50;56.80;;;;;;4954886;28;20109;-74
2022/04/15 03:46:47;;;;;;;6.85;3.08;;;22.50;56.80;;;;;;4951063;28;20028;-74
2022/04/15 03:49:13;;;;;;;7.30;3.20;;;22.50;56.80;;;;;;4954821;28;20037;-74
2022/04/15 03:51:39;;;;;;;7.90;2.90;;;22.50;56.80;;;;;;4948666;28;20155;-73
2022/04/15 03:54:04;;;;;;;7.90;3.13;;;22.60;56.70;;;;;;4953388;29;20087;-73
2022/04/15 03:56:30;;;;;;;7.22;3.10;;;22.60;56.80;;;;;;4951616;28;20046;-74
2022/04/15 03:58:56;;;;;;;10.73;3.17;;;22.60;56.80;;;;;;4953548;29;20059;-74
2022/04/15 04:01:23;;;;;;;7.80;3.20;;;22.60;56.80;;;;;;4950266;29;20035;-75
2022/04/15 04:03:49;;;;;;;5.35;2.92;;;22.50;56.80;;;;;;4952614;28;20128;-74
2022/04/15 04:06:15;;;;;;;7.45;2.83;;;22.50;56.80;;;;;;4952784;23;20457;-73
2022/04/15 04:08:42;;;;;;;7.40;3.33;;;22.50;56.80;;;;;;4933894;29;20026;-74
2022/04/15 04:11:08;;;;;;;6.75;3.30;;;22.50;56.80;;;;;;4917293;29;20035;-73
2022/04/15 04:13:34;;;;;;;11.23;3.25;;;22.50;57.40;;;;;;4934649;29;20111;-73
2022/04/15 04:15:59;;;;;;;5.28;3.10;;;22.50;56.80;;;;;;4934114;29;20030;-74
2022/04/15 04:18:25;;;;;;;6.28;3.05;;;22.50;56.80;;;;;;4934710;29;20020;-73
2022/04/15 04:20:51;;;;;;;7.15;3.10;;;22.60;56.90;;;;;;4933131;29;20513;-74
2022/04/15 04:23:16;;;;;;;6.85;3.05;;;22.50;56.80;;;;;;4935212;29;20481;-74
2022/04/15 04:25:42;;;;;;;10.00;3.13;;;22.50;56.80;;;;;;4934359;29;20111;-74
2022/04/15 04:28:08;;;;;;;5.68;2.88;;;22.50;56.90;;;;;;4935018;29;20024;-73
2022/04/15 04:30:33;;;;;;;7.38;2.97;;;22.50;56.90;;;;;;4935559;29;20140;-74
2022/04/15 04:33:02;;;;;;;7.03;3.13;;;22.50;57.00;;;;;;4935076;29;20028;-74
2022/04/15 04:35:28;;;;;;;6.90;2.88;;;22.50;57.00;;;;;;4915739;29;20096;-74
2022/04/15 04:37:53;;;;;;;7.95;2.60;;;22.50;57.00;;;;;;4937711;29;20494;-74
2022/04/15 04:40:19;;;;;;;5.45;2.80;;;22.50;57.10;;;;;;4934299;29;20016;-74
2022/04/15 04:42:47;;;;;;;5.72;2.97;;;22.50;57.20;;;;;;4934102;29;20392;-74
2022/04/15 04:45:13;;;;;;;6.32;3.20;;;22.50;57.10;;;;;;4934004;29;20106;-74
2022/04/15 04:47:41;;;;;;;6.10;3.10;;;22.50;57.20;;;;;;4932904;29;20034;-73
2022/04/15 04:50:08;;;;;;;9.75;2.75;;;22.50;57.20;;;;;;4924651;29;20039;-75
2022/04/15 04:52:35;;;;;;;8.10;3.22;;;22.40;57.20;;;;;;4934077;29;20035;-73
2022/04/15 04:55:01;;;;;;;6.93;2.97;;;22.40;57.50;;;;;;4933743;29;20481;-75
2022/04/15 04:57:27;;;;;;;8.68;2.70;;;22.50;57.50;;;;;;4933664;29;20028;-74
2022/04/15 04:59:52;;;;;;;7.22;3.20;;;22.50;57.70;;;;;;4933422;29;20036;-74
2022/04/15 05:02:18;;;;;;;10.45;2.90;;;22.50;57.60;;;;;;4932517;29;20050;-74
2022/04/15 05:04:44;;;;;;;5.82;2.90;;;22.50;57.50;;;;;;4932228;29;20028;-74
2022/04/15 05:07:09;;;;;;;10.15;2.67;;;22.50;57.50;;;;;;4932596;29;20034;-74
2022/04/15 05:09:35;;;;;;;6.53;2.75;;;22.50;57.40;;;;;;4933547;29;20046;-74
2022/04/15 05:12:01;;;;;;;4.47;2.80;;;22.50;57.40;;;;;;4933415;29;20270;-73
2022/04/15 05:14:27;;;;;;;6.13;3.03;;;22.40;57.40;;;;;;4934088;29;20115;-74
2022/04/15 05:16:52;;;;;;;5.32;2.65;;;22.40;57.40;;;;;;4933381;29;20387;-74
2022/04/15 05:19:18;;;;;;;6.10;3.10;;;22.40;57.50;;;;;;4933223;29;20027;-74
2022/04/15 05:21:43;;;;;;;5.68;2.88;;;22.40;57.40;;;;;;4933180;29;20038;-74
2022/04/15 05:24:09;;;;;;;6.88;2.95;;;22.40;57.50;;;;;;4932586;29;20023;-74
2022/04/15 05:26:38;;;;;;;5.22;2.92;;;22.40;57.20;;;;;;4933237;29;20067;-74
2022/04/15 05:29:04;;;;;;;5.30;2.70;;;22.40;57.50;;;;;;4933062;29;20106;-74
2022/04/15 05:31:30;;;;;;;5.68;2.97;;;22.40;57.50;;;;;;4934689;29;20078;-73
2022/04/15 05:33:56;;;;;;;6.13;2.72;;;22.40;57.20;;;;;;4932958;29;20036;-73
2022/04/15 05:36:22;;;;;;;4.05;2.78;;;22.40;57.50;;;;;;4931990;29;20035;-73
2022/04/15 05:38:47;;;;;;;5.95;2.85;;;22.40;57.20;;;;;;4931524;29;20030;-74
2022/04/15 05:41:13;;;;;;;6.15;2.75;;;22.40;57.50;;;;;;4933415;29;20055;-75
2022/04/15 05:43:39;;;;;;;6.10;3.00;;;22.40;57.40;;;;;;4932482;29;20028;-75
2022/04/15 05:46:04;;;;;;;7.28;3.15;;;22.40;57.20;;;;;;4931976;29;20023;-74
2022/04/15 05:48:30;;;;;;;6.00;2.63;;;22.40;57.40;;;;;;4932353;29;20023;-74
2022/04/15 05:50:56;;;;;;;4.75;2.50;;;22.40;57.20;;;;;;4932160;29;20481;-75
2022/04/15 05:53:22;;;;;;;5.05;2.78;;;22.40;57.50;;;;;;4932341;29;20601;-75
2022/04/15 05:55:48;;;;;;;4.47;2.65;;;22.40;57.40;;;;;;4930857;29;20118;-75
2022/04/15 05:58:16;;;;;;;6.05;2.75;;;22.40;57.50;;;;;;4930754;29;20477;-76
2022/04/15 06:00:44;;;;;;;6.88;2.50;;;22.40;57.50;;;;;;4916310;29;20019;-75
2022/04/15 06:03:10;;;;;;;5.60;2.90;;;22.40;57.10;;;;;;4932543;29;20031;-75
2022/04/15 06:05:39;;;;;;;5.28;2.80;;;22.40;57.50;;;;;;4930778;29;20038;-76
2022/04/15 06:08:14;;;;;;;6.57;2.75;;;22.40;57.50;;;;;;4902443;29;20385;-75
2022/04/15 06:10:40;;;;;;;4.22;2.50;;;22.40;58.00;;;;;;4933083;29;20503;-75
2022/04/15 06:13:09;;;;;;;4.47;2.55;;;22.40;57.40;;;;;;4931708;29;20384;-74
2022/04/15 06:15:41;;;;;;;5.18;2.60;;;22.40;57.10;;;;;;4932618;29;20023;-75
2022/04/15 06:18:07;;;;;;;6.85;2.67;;;22.40;57.50;;;;;;4923125;29;20028;-74
2022/04/15 06:20:32;;;;;;;4.63;2.55;;;22.40;57.50;;;;;;4932460;29;20470;-75
2022/04/15 06:22:58;;;;;;;5.75;2.80;;;22.40;57.50;;;;;;4930959;29;20034;-75
2022/04/15 06:25:24;;;;;;;5.70;2.50;;;22.40;57.50;;;;;;4931329;29;20107;-74
2022/04/15 06:27:51;;;;;;;4.93;2.65;;;22.40;57.40;;;;;;4934345;29;20035;-74
2022/04/15 06:30:19;;;;;;;5.60;2.75;;;22.40;57.40;;;;;;4937402;29;20399;-75
2022/04/15 06:32:44;;;;;;;4.47;2.60;;;22.40;57.40;;;;;;4935110;29;20031;-75
2022/04/15 06:35:10;;;;;;;6.47;2.50;;;22.40;57.40;;;;;;4936082;29;20071;-74
2022/04/15 06:37:36;;;;;;;4.95;2.85;;;22.40;57.40;;;;;;4935059;29;20094;-75
2022/04/15 06:40:01;;;;;;;4.85;2.72;;;22.40;57.40;;;;;;4935511;29;20122;-74
2022/04/15 06:42:30;;;;;;;5.07;2.80;;;22.40;57.40;;;;;;4936680;29;20489;-75
2022/04/15 06:44:56;;;;;;;6.80;2.58;;;22.40;57.40;;;;;;4935006;29;20389;-74
2022/04/15 06:47:22;;;;;;;5.22;2.60;;;22.40;57.30;;;;;;4935976;29;20023;-75
2022/04/15 06:49:48;;;;;;;5.97;3.10;;;22.40;57.20;;;;;;4935316;29;20081;-74
2022/04/15 06:52:15;;;;;;;5.60;2.60;;;22.40;57.30;;;;;;4935095;29;20020;-74
2022/04/15 06:54:41;;;;;;;6.93;2.42;;;22.40;57.30;;;;;;4936280;29;20111;-74
2022/04/15 06:57:07;;;;;;;4.95;2.70;;;22.40;57.10;;;;;;4927150;29;20174;-74
2022/04/15 06:59:33;;;;;;;7.40;2.95;;;22.40;57.20;;;;;;4934922;29;20024;-74
2022/04/15 07:02:01;;;;;;;4.95;2.80;;;22.40;56.90;;;;;;4935890;29;20390;-74
2022/04/15 07:04:28;;;;;;;6.55;2.88;;;22.40;56.50;;;;;;4934731;29;20159;-74
2022/04/15 07:06:57;;;;;;;5.03;2.40;;;22.40;57.20;;;;;;4935683;29;20086;-74
2022/04/15 07:09:23;;;;;;;5.93;2.75;;;22.40;57.00;;;;;;4934248;29;20054;-74
2022/04/15 07:11:49;;;;;;;4.55;2.67;;;22.40;57.10;;;;;;4935609;29;20028;-74
2022/04/15 07:14:15;;;;;;;9.20;2.83;;;22.40;57.20;;;;;;4935604;29;20047;-75
2022/04/15 07:16:41;;;;;;;8.18;2.80;;;22.40;57.10;;;;;;4935787;29;20027;-75
2022/04/15 07:19:07;;;;;;;6.03;2.92;;;22.40;57.70;;;;;;4929759;29;20024;-75
2022/04/15 07:21:37;;;;;;;7.07;2.83;;;22.40;57.80;;;;;;4936718;29;20028;-75
2022/04/15 07:24:04;;;;;;;16.58;2.42;;;22.40;58.00;;;;;;4934759;29;20031;-75
2022/04/15 07:26:30;;;;;;;8.80;2.88;;;22.40;58.00;;;;;;4934106;29;20503;-75
2022/04/15 07:28:56;;;;;;;7.13;2.47;;;22.40;58.70;;;;;;4933885;29;20032;-75
2022/04/15 07:31:22;;;;;;;5.03;2.30;;;22.40;58.80;;;;;;4932385;29;20035;-75
2022/04/15 07:33:48;;;;;;;7.68;2.90;;;22.40;58.60;;;;;;4918543;29;20091;-75
2022/04/15 07:39:00;;;;;;;6.05;2.50;;;22.40;58.40;;;;;;4930371;29;20028;-75
2022/04/15 07:41:26;;;;;;;7.13;2.70;;;22.40;58.50;;;;;;4936350;29;20584;-75
2022/04/15 07:43:52;;;;;;;6.93;2.88;;;22.40;58.50;;;;;;4934080;29;20111;-75
2022/04/15 07:46:18;;;;;;;4.55;2.50;;;22.40;57.70;;;;;;4936149;29;20034;-75
2022/04/15 07:48:44;;;;;;;5.13;2.75;;;22.40;58.20;;;;;;4935080;29;20027;-74
2022/04/15 07:51:09;;;;;;;9.05;2.97;;;22.40;58.00;;;;;;4935187;29;20548;-75
2022/04/15 07:53:36;;;;;;;5.07;2.60;;;22.40;58.00;;;;;;4930760;29;20059;-76
2022/04/15 07:56:02;;;;;;;8.38;2.70;;;22.40;58.00;;;;;;4934094;29;20035;-75
2022/04/15 07:58:31;;;;;;;6.53;2.70;;;22.30;57.50;;;;;;4934664;29;20083;-75
2022/04/15 08:01:00;;;;;;;5.97;2.40;;;22.40;57.70;;;;;;4932013;29;20052;-75
2022/04/15 08:03:27;;;;;;;4.85;2.50;;;22.40;57.80;;;;;;4929187;29;20075;-75
2022/04/15 08:05:53;;;;;;;7.50;3.00;;;22.40;57.40;;;;;;4940307;29;20031;-75
2022/04/15 08:08:18;;;;;;;6.53;2.50;;;22.40;58.10;;;;;;4917306;29;20114;-75
2022/04/15 08:10:44;;;;;;;9.52;2.50;;;22.30;57.90;;;;;;4934115;29;20023;-76
2022/04/15 08:13:10;;;;;;;7.63;2.63;;;22.40;58.00;;;;;;4935142;29;20087;-75
2022/04/15 08:15:35;;;;;;;11.55;3.00;;;22.40;57.60;;;;;;4918524;29;20062;-76
2022/04/15 08:18:01;;;;;;;9.75;2.58;;;22.40;58.30;;;;;;4934769;29;20086;-76
2022/04/15 08:20:27;;;;;;;6.82;2.40;;;22.40;57.80;;;;;;4935661;29;20094;-76
2022/04/15 08:22:53;;;;;;;8.88;2.60;;;22.40;57.60;;;;;;4935418;29;20088;-76
2022/04/15 08:25:19;;;;;;;5.10;2.60;;;22.40;57.80;;;;;;4918505;29;20061;-76
2022/04/15 08:27:45;;;;;;;5.75;2.67;;;22.40;58.10;;;;;;4929215;29;20489;-76
2022/04/15 08:30:11;;;;;;;5.13;2.75;;;22.40;57.70;;;;;;4935476;29;20050;-75
2022/04/15 08:32:36;;;;;;;7.10;2.40;;;22.40;57.70;;;;;;4933257;29;20023;-74
2022/04/15 08:35:04;;;;;;;9.48;2.88;;;22.30;58.50;;;;;;4934793;29;20107;-75
2022/04/15 08:37:31;;;;;;;8.43;2.80;;;22.40;58.30;;;;;;4933612;29;20046;-75
2022/04/15 08:39:57;;;;;;;6.03;2.60;;;22.40;58.30;;;;;;4935081;29;20035;-75
2022/04/15 08:42:23;;;;;;;11.13;3.33;;;22.40;58.00;;;;;;4921506;29;20399;-75
2022/04/15 08:44:52;;;;;;;9.43;3.20;;;22.40;58.50;;;;;;4918043;29;20397;-76
2022/04/15 08:47:19;;;;;;;7.40;3.40;;;22.40;58.40;;;;;;4933923;29;20447;-76
2022/04/15 08:49:46;;;;;;;10.88;3.58;;;22.40;58.60;;;;;;4933443;29;20032;-75
2022/04/15 08:52:16;;;;;;;7.90;3.50;;;22.40;58.90;;;;;;4934264;29;20078;-75
2022/04/15 08:54:43;;;;;;;;;;;22.50;59.10;;;;;;4918097;29;20024;-75
2022/04/15 08:57:09;;;;;;;14.23;3.90;;;22.40;58.60;;;;;;4931801;29;20538;-76
2022/04/15 08:59:34;;;;;;;19.77;6.43;;;22.40;59.20;;;;;;4934931;29;20016;-76
2022/04/15 09:02:00;;;;;;;20.63;5.53;;;22.40;61.30;;;;;;4932790;29;20032;-76
2022/04/15 09:04:26;;;;;;;27.33;6.18;;;22.50;64.20;;;;;;4934520;29;20023;-76
2022/04/15 09:07:00;;;;;;;17.30;5.05;;;22.50;63.90;;;;;;4917173;29;20052;-76
2022/04/15 09:09:30;;;;;;;17.17;5.10;;;22.50;62.50;;;;;;4927985;29;20039;-77
2022/04/15 09:11:58;;;;;;;20.70;5.32;;;22.40;59.10;;;;;;4932882;29;20036;-77
2022/04/15 09:14:25;;;;;;;15.80;5.15;;;22.40;61.00;;;;;;4917442;29;20028;-76
2022/04/15 09:16:51;;;;;;;16.67;6.35;;;22.40;59.10;;;;;;4933424;29;20020;-76
2022/04/15 09:19:18;;;;;;;16.33;5.55;;;22.50;57.50;;;;;;4933216;29;20051;-76
2022/04/15 09:21:53;;;;;;;19.73;5.38;;;22.50;60.60;;;;;;4932661;29;20024;-79
2022/04/15 09:24:32;;;;;;;17.27;5.40;;;22.50;60.00;;;;;;4934160;29;20024;-76
2022/04/15 09:27:03;;;;;;;15.45;5.10;;;22.50;60.10;;;;;;4933579;29;20366;-75
2022/04/15 09:29:38;;;;;;;14.13;4.93;;;22.50;60.50;;;;;;4932274;29;20028;-76
2022/04/15 09:32:09;;;;;;;14.90;4.80;;;22.50;60.50;;;;;;4933035;29;20568;-76
2022/04/15 09:35:05;;;;;;;14.00;5.40;;;22.40;59.40;;;;;;4935189;29;20035;-74
2022/04/15 09:37:44;;;;;;;17.00;5.70;;;22.50;60.40;;;;;;4928898;29;20028;-76
2022/04/15 09:40:14;;;;;;;12.48;4.63;;;22.40;59.20;;;;;;4932210;29;20153;-76
2022/04/15 09:42:47;;;;;;;13.63;4.20;;;22.30;59.10;;;;;;4932766;29;20027;-76
2022/04/15 09:45:18;;;;;;;11.15;4.55;;;22.40;56.70;;;;;;4934115;29;20448;-76
2022/04/15 09:47:59;;;;;;;21.65;4.68;;;22.40;57.70;;;;;;4930942;29;20024;-76
2022/04/15 09:50:26;;;;;;;12.68;4.03;;;22.40;57.90;;;;;;4926456;29;20134;-76
2022/04/15 09:52:53;;;;;;;10.15;4.10;;;22.40;56.80;;;;;;4932755;29;20366;-76
2022/04/15 09:55:23;;;;;;;12.45;4.07;;;22.40;56.30;;;;;;4933026;29;20023;-76
2022/04/15 09:57:50;;;;;;;14.90;3.78;;;22.40;55.60;;;;;;4917077;29;20106;-76
2022/04/15 10:00:18;;;;;;;14.48;4.05;;;22.30;54.50;;;;;;4932819;29;20027;-74
2022/04/15 10:02:45;;;;;;;18.83;4.22;;;22.30;55.20;;;;;;4931208;29;20031;-77
2022/04/15 10:05:12;;;;;;;13.10;4.03;;;22.30;55.80;;;;;;4927852;29;20478;-77
2022/04/15 10:07:42;;;;;;;13.18;3.88;;;22.30;55.20;;;;;;4933603;29;20024;-77
2022/04/15 10:10:09;;;;;;;12.90;3.75;;;22.30;55.60;;;;;;4914054;29;20067;-76
2022/04/15 10:12:42;;;;;;;15.23;3.85;;;22.30;56.70;;;;;;4910999;29;20035;-80
2022/04/15 10:15:09;;;;;;;8.60;4.20;;;22.30;56.70;;;;;;4925797;29;20015;-77
2022/04/15 10:17:41;;;;;;;14.90;3.58;;;22.20;55.60;;;;;;4928422;29;20115;-76
2022/04/15 10:20:08;;;;;;;15.68;3.90;;;22.30;56.10;;;;;;4924580;29;20036;-78
2022/04/15 10:22:37;;;;;;;18.30;4.00;;;22.30;56.20;;;;;;4928077;29;20066;-80
2022/04/15 10:25:06;;;;;;;14.93;3.78;;;22.30;57.00;;;;;;4931008;29;20550;-77
2022/04/15 10:27:32;;;;;;;15.98;4.55;;;22.30;56.40;;;;;;4932056;29;20408;-79
2022/04/15 10:30:03;;;;;;;19.52;3.70;;;22.30;57.20;;;;;;4932463;29;20028;-78
2022/04/15 10:32:28;;;;;;;17.40;7.50;;;22.30;57.60;;;;;;4932482;29;20034;-76
2022/04/15 10:34:54;;;;;;;16.08;5.65;;;22.30;56.80;;;;;;4933758;29;20032;-77
2022/04/15 10:37:45;;;;;;;13.55;5.22;;;22.30;56.20;;;;;;4932169;29;20085;-76
2022/04/15 10:40:25;;;;;;;15.80;4.97;;;22.30;56.70;;;;;;4934017;29;20438;-76
2022/04/15 10:42:51;;;;;;;14.35;4.68;;;22.30;56.90;;;;;;4934044;29;20051;-77
2022/04/15 10:45:34;;;;;;;17.13;4.22;;;22.20;57.30;;;;;;4933684;29;20075;-77
2022/04/15 10:48:02;;;;;;;9.63;4.10;;;22.20;57.40;;;;;;4916512;29;20035;-77
2022/04/15 10:50:29;;;;;;;10.52;4.15;;;22.20;57.40;;;;;;4932552;29;20035;-76
2022/04/15 10:53:16;;;;;;;15.80;4.15;;;22.20;57.70;;;;;;4916771;29;20036;-77
2022/04/15 10:55:43;;;;;;;9.60;4.10;;;22.20;57.60;;;;;;4932901;29;20127;-76
2022/04/15 10:58:12;;;;;;;10.50;4.20;;;22.30;57.80;;;;;;4931991;29;20472;-76
2022/04/15 11:03:28;;;;;;;9.38;3.85;;;22.20;58.00;;;;;;4933633;29;20396;-76
2022/04/15 11:06:04;;;;;;;11.68;4.00;;;22.20;57.90;;;;;;4932378;29;20043;-75
2022/04/15 11:08:48;;;;;;;11.77;4.13;;;22.30;58.00;;;;;;4933735;29;20087;-76
2022/04/15 11:11:14;;;;;;;12.60;3.88;;;22.20;57.90;;;;;;4933764;29;20036;-76
2022/04/15 11:13:40;;;;;;;10.57;4.05;;;22.20;57.90;;;;;;4935059;29;20428;-75
2022/04/15 11:16:12;;;;;;;12.20;3.65;;;22.20;57.90;;;;;;4920001;29;20087;-75
2022/04/15 11:19:00;;;;;;;13.40;3.90;;;22.20;58.00;;;;;;4919949;29;20106;-75
2022/04/15 11:21:30;;;;;;;9.75;3.53;;;22.20;57.90;;;;;;4935782;29;20031;-76
2022/04/15 11:23:58;;;;;;;10.50;3.65;;;22.20;57.70;;;;;;4936724;29;20114;-76
2022/04/15 11:26:28;;;;;;;9.57;3.60;;;22.30;57.60;;;;;;4935485;29;20505;-76
2022/04/15 11:28:57;;;;;;;7.07;3.40;;;22.30;57.60;;;;;;4936965;29;20037;-76
2022/04/15 11:31:26;;;;;;;8.35;3.60;;;22.30;57.60;;;;;;4936789;29;20028;-76
2022/04/15 11:33:56;;;;;;;8.10;3.47;;;22.30;57.50;;;;;;4935468;29;20392;-76
2022/04/15 11:36:23;;;;;;;10.07;3.30;;;22.20;57.60;;;;;;4936562;29;20024;-77
2022/04/15 11:38:50;;;;;;;8.45;3.55;;;22.20;57.60;;;;;;4919080;29;20499;-76
2022/04/15 11:41:20;;;;;;;8.25;3.40;;;22.20;57.70;;;;;;4935627;29;20047;-77
2022/04/15 11:44:05;;;;;;;11.50;3.53;;;22.20;57.60;;;;;;4937276;29;20024;-76
2022/04/15 11:46:44;;;;;;;10.60;3.38;;;22.20;57.60;;;;;;4919791;29;20052;-76
2022/04/15 11:49:18;;;;;;;7.10;2.97;;;22.20;58.10;;;;;;4919173;29;20051;-76
2022/04/15 11:51:52;;;;;;;9.27;3.38;;;22.20;57.50;;;;;;4936350;29;20280;-76
2022/04/15 11:54:23;;;;;;;9.05;3.15;;;22.20;57.50;;;;;;4934910;29;20028;-77
2022/04/15 11:56:54;;;;;;;10.10;3.38;;;22.20;57.60;;;;;;4935344;29;20374;-76
2022/04/15 11:59:20;;;;;;;10.20;3.17;;;22.20;57.50;;;;;;4950863;29;20024;-75
2022/04/15 12:01:46;;;;;;;7.20;3.33;;;22.20;57.50;;;;;;4920171;29;20400;-76
2022/04/15 12:04:12;;;;;;;7.38;3.38;;;22.20;57.40;;;;;;4920338;29;20115;-76
2022/04/15 12:06:42;;;;;;;6.18;3.35;;;22.20;57.40;;;;;;4937237;29;20067;-76
2022/04/15 12:09:15;;;;;;;7.03;3.33;;;22.20;57.40;;;;;;4934743;29;20043;-76
2022/04/15 12:11:41;;;;;;;9.25;3.25;;;22.20;57.40;;;;;;4936006;29;20057;-76
2022/04/15 12:14:08;;;;;;;7.72;3.20;;;22.20;57.30;;;;;;4936514;29;20383;-75
2022/04/15 12:16:39;;;;;;;6.00;3.38;;;22.20;57.20;;;;;;4935433;29;20054;-76
2022/04/15 12:19:06;;;;;;;9.90;3.35;;;22.20;57.20;;;;;;4920074;29;20473;-76
2022/04/15 12:21:33;;;;;;;8.57;3.63;;;22.20;57.00;;;;;;4919872;29;20028;-76
2022/04/15 12:24:04;;;;;;;6.88;2.97;;;22.20;57.20;;;;;;4919458;29;20027;-74
2022/04/15 12:27:06;;;;;;;8.27;3.17;;;22.20;57.20;;;;;;4936586;29;20032;-75
2022/04/15 12:29:47;;;;;;;6.70;3.25;;;22.20;57.00;;;;;;4883912;29;20048;-75
2022/04/15 12:32:15;;;;;;;7.13;3.53;;;22.20;56.80;;;;;;4933351;29;20123;-75
2022/04/15 12:34:42;;;;;;;7.22;3.10;;;22.20;56.50;;;;;;4934590;29;20067;-75
2022/04/15 12:37:34;;;;;;;6.85;3.20;;;22.20;57.00;;;;;;4934521;29;20087;-74
2022/04/15 12:40:14;;;;;;;4.97;2.70;;;22.20;56.70;;;;;;4935590;29;20032;-75
2022/04/15 12:42:41;;;;;;;9.75;3.17;;;22.20;57.00;;;;;;4935480;29;20039;-75
2022/04/15 12:45:19;;;;;;;10.15;3.40;;;22.20;56.80;;;;;;4934426;29;20042;-75
2022/04/15 12:48:04;;;;;;;9.38;3.17;;;22.20;56.80;;;;;;4934950;29;20051;-75
2022/04/15 12:50:35;;;;;;;8.13;3.25;;;22.20;56.80;;;;;;4918396;29;20028;-75
2022/04/15 12:53:12;;;;;;;6.97;2.85;;;22.20;56.80;;;;;;4933978;29;20054;-75
2022/04/15 12:55:38;;;;;;;6.55;3.00;;;22.20;56.80;;;;;;4918381;29;20103;-75
2022/04/15 12:58:30;;;;;;;6.13;3.00;;;22.20;56.70;;;;;;4933873;29;20536;-75
2022/04/15 13:00:58;;;;;;;5.95;3.03;;;22.20;56.70;;;;;;4948495;29;20404;-74
2022/04/15 13:03:26;;;;;;;5.75;2.75;;;22.20;56.60;;;;;;4935612;29;20038;-74
2022/04/15 13:05:54;;;;;;;5.82;2.95;;;22.20;56.60;;;;;;4933958;29;20067;-74
2022/04/15 13:08:21;;;;;;;5.90;2.83;;;22.20;56.70;;;;;;4933796;29;20036;-75
2022/04/15 13:10:49;;;;;;;6.05;2.95;;;22.20;56.50;;;;;;4933842;29;20504;-75
2022/04/15 13:13:20;;;;;;;6.07;2.85;;;22.20;56.40;;;;;;4918432;29;20036;-75
2022/04/15 13:15:49;;;;;;;6.18;2.95;;;22.20;56.60;;;;;;4933775;29;20031;-76
2022/04/15 13:18:19;;;;;;;7.03;3.25;;;22.20;56.50;;;;;;4934745;29;20388;-74